createdAt,value
2022-08-05T00:01:20.309Z,88.37
2022-08-05T00:02:07.419Z,88.82
2022-08-05T00:02:58.802Z,88.21
2022-08-05T00:03:57.602Z,88.71
2022-08-05T00:04:58.249Z,88.21
2022-08-05T00:06:06.404Z,87.36
2022-08-05T00:06:59.262Z,87.96
2022-08-05T00:08:01.279Z,88.52
2022-08-05T00:08:58.192Z,88.71
2022-08-05T00:09:59.249Z,88.42
2022-08-05T00:11:00.792Z,88.56
2022-08-05T00:11:59.998Z,89.36
2022-08-05T00:12:58.816Z,89.42
2022-08-05T00:13:58.949Z,89.46
2022-08-05T00:14:59.188Z,88.66
2022-08-05T00:16:00.566Z,88.12
2022-08-05T00:17:02.089Z,89.42
2022-08-05T00:17:59.777Z,89.52
2022-08-05T00:19:00.269Z,89.42
2022-08-05T00:20:02.694Z,88.12
2022-08-05T00:21:00.382Z,88.02
2022-08-05T00:22:00.606Z,88.42
2022-08-05T00:23:02.721Z,87.96
2022-08-05T00:24:10.561Z,87.16
2022-08-05T00:25:02.289Z,86.85
2022-08-05T00:26:02.335Z,86.66
2022-08-05T00:27:01.554Z,87.26
2022-08-05T00:28:01.751Z,86.76
2022-08-05T00:29:01.886Z,86.60
2022-08-05T00:30:03.173Z,86.50
2022-08-05T00:31:04.236Z,86.50
2022-08-05T00:32:13.169Z,85.60
2022-08-05T00:33:03.691Z,85.89
2022-08-05T00:34:54.485Z,85.39
2022-08-05T00:35:06.822Z,86.19
2022-08-05T00:36:15.845Z,85.30
2022-08-05T00:37:10.347Z,85.49
2022-08-05T00:38:05.261Z,85.49
2022-08-05T00:39:03.976Z,85.80
2022-08-05T00:40:04.196Z,85.39
2022-08-05T00:41:06.262Z,85.89
2022-08-05T00:42:05.453Z,85.44
2022-08-05T00:43:07.661Z,85.30
2022-08-05T00:44:04.851Z,86.24
2022-08-05T00:45:04.977Z,85.49
2022-08-05T00:46:05.173Z,85.24
2022-08-05T00:47:06.317Z,85.53
2022-08-05T00:48:06.206Z,85.89
2022-08-05T00:49:05.746Z,85.63
2022-08-05T00:50:05.885Z,85.83
2022-08-05T00:51:49.839Z,86.24
2022-08-05T00:52:07.230Z,85.89
2022-08-05T00:53:09.589Z,85.99
2022-08-05T00:54:07.511Z,86.19
2022-08-05T00:55:06.652Z,85.39
2022-08-05T00:56:07.851Z,85.80
2022-08-05T00:57:06.992Z,86.10
2022-08-05T00:58:07.146Z,86.10
2022-08-05T00:59:07.362Z,86.19
2022-08-05T01:00:07.532Z,86.50
2022-08-05T01:01:08.999Z,86.44
2022-08-05T01:02:08.915Z,87.00
2022-08-05T01:03:08.241Z,87.04
2022-08-05T01:04:14.167Z,87.04
2022-08-05T01:05:09.969Z,86.94
2022-08-05T01:06:14.193Z,87.84
2022-08-05T01:07:13.508Z,87.94
2022-08-05T01:08:40.529Z,87.84
2022-08-05T01:09:10.283Z,88.04
2022-08-05T01:10:09.406Z,88.14
2022-08-05T01:11:09.593Z,87.54
2022-08-05T01:12:18.052Z,87.84
2022-08-05T01:13:13.204Z,88.04
2022-08-05T01:14:11.135Z,88.84
2022-08-05T01:15:35.708Z,88.68
2022-08-05T01:16:11.790Z,88.18
2022-08-05T01:17:10.633Z,88.68
2022-08-05T01:18:11.562Z,88.89
2022-08-05T01:19:10.926Z,89.59
2022-08-05T01:20:11.040Z,89.69
2022-08-05T01:21:11.966Z,89.29
2022-08-05T01:22:18.685Z,89.99
2022-08-05T01:23:14.896Z,89.59
2022-08-05T01:24:13.365Z,89.79
2022-08-05T01:25:13.528Z,90.69
2022-08-05T01:26:12.778Z,90.89
2022-08-05T01:27:19.239Z,90.59
2022-08-05T01:28:13.457Z,91.60
2022-08-05T01:29:12.601Z,91.39
2022-08-05T01:30:18.655Z,91.60
2022-08-05T01:31:14.043Z,91.50
2022-08-05T01:32:18.396Z,91.19
2022-08-05T01:33:14.793Z,91.39
2022-08-05T01:34:13.472Z,91.09
2022-08-05T01:35:50.154Z,91.60
2022-08-05T01:36:16.278Z,92.00
2022-08-05T01:37:20.231Z,91.80
2022-08-05T01:38:27.016Z,92.20
2022-08-05T01:39:15.280Z,92.90
2022-08-05T01:40:17.933Z,92.70
2022-08-05T01:41:14.720Z,92.80
2022-08-05T01:42:15.283Z,92.90
2022-08-05T01:43:21.892Z,93.40
2022-08-05T01:44:16.300Z,93.50
2022-08-05T01:45:16.462Z,93.40
2022-08-05T01:46:16.264Z,93.50
2022-08-05T01:47:16.717Z,93.70
2022-08-05T01:48:15.755Z,94.20
2022-08-05T01:49:22.850Z,94.16
2022-08-05T01:50:17.379Z,93.70
2022-08-05T01:51:16.807Z,93.60
2022-08-05T01:52:18.024Z,93.66
2022-08-05T01:53:17.293Z,92.96
2022-08-05T01:54:18.297Z,93.05
2022-08-05T01:55:18.034Z,92.81
2022-08-05T01:58:10.553Z,92.81
2022-08-05T01:58:11.543Z,92.51
2022-08-05T01:58:18.542Z,92.41
2022-08-05T01:59:18.800Z,92.41
2022-08-05T02:00:18.792Z,92.01
2022-08-05T02:01:24.574Z,91.61
2022-08-05T02:02:19.315Z,91.91
2022-08-05T02:03:29.156Z,91.91
2022-08-05T02:04:19.811Z,91.65
2022-08-05T02:05:18.828Z,91.81
2022-08-05T02:06:33.531Z,91.45
2022-08-05T02:07:22.132Z,91.91
2022-08-05T02:08:29.604Z,91.81
2022-08-05T02:09:20.841Z,91.81
2022-08-05T02:10:19.625Z,91.71
2022-08-05T02:11:23.840Z,92.05
2022-08-05T02:12:21.079Z,92.11
2022-08-05T02:13:21.903Z,92.11
2022-08-05T02:14:20.485Z,92.41
2022-08-05T02:15:21.295Z,92.51
2022-08-05T02:16:22.205Z,91.71
2022-08-05T02:18:12.509Z,91.51
2022-08-05T02:18:30.855Z,91.51
2022-08-05T02:19:22.697Z,91.61
2022-08-05T02:20:22.273Z,91.81
2022-08-05T02:21:21.819Z,91.85
2022-08-05T02:22:26.471Z,92.35
2022-08-05T02:23:23.080Z,92.85
2022-08-05T02:24:23.399Z,92.66
2022-08-05T02:25:22.514Z,92.76
2022-08-05T02:26:23.296Z,92.85
2022-08-05T02:27:29.747Z,92.76
2022-08-05T02:28:28.616Z,92.61
2022-08-05T02:29:26.190Z,92.15
2022-08-05T02:30:24.545Z,91.61
2022-08-05T02:31:23.699Z,91.71
2022-08-05T02:32:29.414Z,91.81
2022-08-05T02:33:35.921Z,92.01
2022-08-05T02:34:25.290Z,92.01
2022-08-05T02:35:27.993Z,92.11
2022-08-05T02:36:24.678Z,92.25
2022-08-05T02:37:25.859Z,92.35
2022-08-05T02:38:25.421Z,92.11
2022-08-05T02:39:25.250Z,92.35
2022-08-05T02:40:25.990Z,92.11
2022-08-05T02:41:28.974Z,92.31
2022-08-05T02:42:30.722Z,92.85
2022-08-05T02:43:26.959Z,92.71
2022-08-05T02:44:26.087Z,92.55
2022-08-05T02:45:26.280Z,91.51
2022-08-05T02:46:27.617Z,92.05
2022-08-05T02:47:58.663Z,92.05
2022-08-05T02:48:29.143Z,91.51
2022-08-05T02:49:27.802Z,91.15
2022-08-05T02:50:28.317Z,91.01
2022-08-05T02:52:03.916Z,90.81
2022-08-05T02:52:30.425Z,89.75
2022-08-05T02:53:27.679Z,89.50
2022-08-05T02:54:35.651Z,89.30
2022-08-05T02:55:52.032Z,88.30
2022-08-05T02:56:29.284Z,87.04
2022-08-05T02:58:11.605Z,86.84
2022-08-05T02:58:29.975Z,85.63
2022-08-05T02:59:29.314Z,86.44
2022-08-05T03:00:30.814Z,86.28
2022-08-05T03:01:29.373Z,85.58
2022-08-05T03:02:29.280Z,87.18
2022-08-05T03:03:33.844Z,86.52
2022-08-05T03:04:30.602Z,86.92
2022-08-05T03:06:53.705Z,87.46
2022-08-05T03:06:56.031Z,87.77
2022-08-05T03:07:59.248Z,87.87
2022-08-05T03:08:31.295Z,87.42
2022-08-05T03:09:37.438Z,87.12
2022-08-05T03:10:31.828Z,87.06
2022-08-05T03:11:55.079Z,87.52
2022-08-05T03:12:31.957Z,87.52
2022-08-05T03:13:51.547Z,87.12
2022-08-05T03:14:32.839Z,86.42
2022-08-05T03:15:31.375Z,86.92
2022-08-05T03:16:32.314Z,87.12
2022-08-05T03:17:31.707Z,86.38
2022-08-05T03:18:31.896Z,86.38
2022-08-05T03:19:34.424Z,86.48
2022-08-05T03:20:32.825Z,86.38
2022-08-05T03:21:33.087Z,86.62
2022-08-05T03:22:34.321Z,86.62
2022-08-05T03:23:32.826Z,86.52
2022-08-05T03:24:33.825Z,87.02
2022-08-05T03:26:04.560Z,86.92
2022-08-05T03:26:35.488Z,87.16
2022-08-05T03:27:58.898Z,86.92
2022-08-05T03:28:34.808Z,87.77
2022-08-05T03:29:45.088Z,88.67
2022-08-05T03:30:35.114Z,88.47
2022-08-05T03:31:56.889Z,88.97
2022-08-05T03:32:35.850Z,88.37
2022-08-05T03:33:50.986Z,89.17
2022-08-05T03:34:35.721Z,88.17
2022-08-05T03:35:40.875Z,89.78
2022-08-05T03:36:36.040Z,89.27
2022-08-05T03:37:45.718Z,89.78
2022-08-05T03:38:37.523Z,88.87
2022-08-05T03:39:47.278Z,89.67
2022-08-05T03:40:37.919Z,90.68
2022-08-05T03:41:38.582Z,91.38
2022-08-05T03:42:41.645Z,91.28
2022-08-05T03:44:08.666Z,91.83
2022-08-05T03:44:37.525Z,92.53
2022-08-05T03:45:58.137Z,93.79
2022-08-05T03:46:38.345Z,94.44
2022-08-05T03:47:41.357Z,94.74
2022-08-05T03:48:37.305Z,95.44
2022-08-05T03:49:51.290Z,94.68
2022-08-05T03:50:38.667Z,96.24
2022-08-05T03:52:50.546Z,97.64
2022-08-05T03:54:58.556Z,97.95
2022-08-05T03:55:52.348Z,98.10
2022-08-05T03:56:01.011Z,99.10
2022-08-05T03:56:05.472Z,99.20
2022-08-05T03:56:41.308Z,99.00
2022-08-05T03:57:42.202Z,99.00
2022-08-05T03:59:12.480Z,99.10
2022-08-05T03:59:47.715Z,99.15
2022-08-05T04:00:41.872Z,99.65
2022-08-05T04:01:39.709Z,99.99
2022-08-05T04:02:45.192Z,99.99
2022-08-05T04:03:41.000Z,99.99
2022-08-05T04:04:41.238Z,99.99
2022-08-05T04:05:40.872Z,99.99
2022-08-05T04:06:42.805Z,99.99
2022-08-05T04:07:57.914Z,99.99
2022-08-05T04:08:42.370Z,99.99
2022-08-05T04:09:53.570Z,99.99
2022-08-05T04:10:42.157Z,99.99
2022-08-05T04:11:50.767Z,99.99
2022-08-05T04:12:43.362Z,99.99
2022-08-05T04:13:50.155Z,99.99
2022-08-05T04:14:42.740Z,99.99
2022-08-05T04:16:02.802Z,99.99
2022-08-05T04:16:43.121Z,99.99
2022-08-05T04:17:56.160Z,99.99
2022-08-05T04:18:43.495Z,99.99
2022-08-05T04:19:42.652Z,99.99
2022-08-05T04:20:43.370Z,99.99
2022-08-05T04:22:10.402Z,99.99
2022-08-05T04:22:44.055Z,99.99
2022-08-05T04:24:05.239Z,99.99
2022-08-05T04:24:52.806Z,99.99
2022-08-05T04:26:00.280Z,99.99
2022-08-05T04:26:44.654Z,99.99
2022-08-05T04:27:57.583Z,99.99
2022-08-05T04:28:51.009Z,99.99
2022-08-05T04:29:45.266Z,99.99
2022-08-05T04:30:44.392Z,99.99
2022-08-05T04:31:44.586Z,99.99
2022-08-05T04:32:44.825Z,99.99
2022-08-05T04:34:19.047Z,99.99
2022-08-05T04:34:46.136Z,99.99
2022-08-05T04:36:16.138Z,99.99
2022-08-05T04:36:50.108Z,99.99
2022-08-05T04:38:01.487Z,99.99
2022-08-05T04:38:46.841Z,99.99
2022-08-05T04:39:52.822Z,99.99
2022-08-05T04:40:50.719Z,99.99
2022-08-05T04:41:46.339Z,99.99
2022-08-05T04:42:47.381Z,99.99
2022-08-05T04:43:52.007Z,99.99
2022-08-05T04:44:47.912Z,99.99
2022-08-05T04:45:49.015Z,99.99
2022-08-05T04:46:48.507Z,99.99
2022-08-05T04:47:48.379Z,99.99
2022-08-05T04:48:48.380Z,99.99
2022-08-05T04:50:02.568Z,99.99
2022-08-05T04:51:01.630Z,99.99
2022-08-05T04:51:49.096Z,99.99
2022-08-05T04:52:49.884Z,99.99
2022-08-05T04:53:48.893Z,99.99
2022-08-05T04:54:49.336Z,99.99
2022-08-05T04:56:14.643Z,99.99
2022-08-05T04:56:50.109Z,99.99
2022-08-05T04:57:54.144Z,99.99
2022-08-05T04:58:50.487Z,99.99
2022-08-05T04:59:49.902Z,99.99
2022-08-05T05:00:50.686Z,99.99
2022-08-05T05:02:35.576Z,99.99
2022-08-05T05:02:51.235Z,99.99
2022-08-05T05:03:50.339Z,99.99
2022-08-05T05:04:51.445Z,99.99
2022-08-05T05:06:38.966Z,99.99
2022-08-05T05:06:57.568Z,99.99
2022-08-05T05:07:53.000Z,99.99
2022-08-05T05:08:51.886Z,99.99
2022-08-05T05:09:51.420Z,99.99
2022-08-05T05:10:56.466Z,99.99
2022-08-05T05:11:55.693Z,99.99
2022-08-05T05:12:52.913Z,99.99
2022-08-05T05:13:52.884Z,99.99
2022-08-05T05:14:52.250Z,99.99
2022-08-05T05:15:57.437Z,99.99
2022-08-05T05:16:54.863Z,99.99
2022-08-05T05:17:56.605Z,99.99
2022-08-05T05:19:17.553Z,99.99
2022-08-05T05:19:55.058Z,99.99
2022-08-05T05:20:53.398Z,99.99
2022-08-05T05:21:55.499Z,99.99
2022-08-05T05:22:53.580Z,99.99
2022-08-05T05:24:04.260Z,99.99
2022-08-05T05:24:57.842Z,99.99
2022-08-05T05:25:54.130Z,99.99
2022-08-05T05:26:54.310Z,99.99
2022-08-05T05:27:55.775Z,99.99
2022-08-05T05:28:54.718Z,99.99
2022-08-05T05:30:04.175Z,99.99
2022-08-05T05:30:56.056Z,99.99
2022-08-05T05:31:55.177Z,99.99
2022-08-05T05:32:55.428Z,99.99
2022-08-05T05:33:59.848Z,99.99
2022-08-05T05:34:57.397Z,99.99
2022-08-05T05:35:55.935Z,99.99
2022-08-05T05:36:56.049Z,99.99
2022-08-05T05:37:59.824Z,99.99
2022-08-05T05:38:57.527Z,99.99
2022-08-05T05:39:56.482Z,99.99
2022-08-05T05:40:56.917Z,99.99
2022-08-05T05:41:56.921Z,99.99
2022-08-05T05:42:57.161Z,99.99
2022-08-05T05:44:00.589Z,99.99
2022-08-05T05:44:59.613Z,99.99
2022-08-05T05:45:57.720Z,99.99
2022-08-05T05:46:58.226Z,99.99
2022-08-05T05:48:07.070Z,99.99
2022-08-05T05:48:59.909Z,99.99
2022-08-05T05:50:01.640Z,99.99
2022-08-05T05:50:58.543Z,99.99
2022-08-05T05:51:59.681Z,99.99
2022-08-05T05:52:58.806Z,99.99
2022-08-05T05:53:59.922Z,99.99
2022-08-05T05:55:00.211Z,99.99
2022-08-05T05:56:01.314Z,99.99
2022-08-05T05:56:59.618Z,99.99
2022-08-05T05:58:02.047Z,99.99
2022-08-05T05:59:03.566Z,99.99
2022-08-05T06:00:01.282Z,99.99
2022-08-05T06:01:02.092Z,99.99
2022-08-05T06:02:01.682Z,99.99
2022-08-05T06:03:00.904Z,99.99
2022-08-05T06:04:03.656Z,99.99
2022-08-05T06:05:03.488Z,99.99
2022-08-05T06:06:02.521Z,99.99
2022-08-05T06:07:02.400Z,99.99
2022-08-05T06:08:03.790Z,99.99
2022-08-05T06:09:03.810Z,99.99
2022-08-05T06:10:05.788Z,99.99
2022-08-05T06:11:04.403Z,99.99
2022-08-05T06:12:03.056Z,99.99
2022-08-05T06:13:03.405Z,99.99
2022-08-05T06:14:02.878Z,99.99
2022-08-05T06:15:02.996Z,99.99
2022-08-05T06:16:28.928Z,99.99
2022-08-05T06:17:22.359Z,99.99
2022-08-05T06:18:05.920Z,99.99
2022-08-05T06:19:05.735Z,99.99
2022-08-05T06:20:03.943Z,99.99
2022-08-05T06:21:04.910Z,99.99
2022-08-05T06:22:04.242Z,99.99
2022-08-05T06:23:05.438Z,99.99
2022-08-05T06:24:04.634Z,99.99
2022-08-05T06:25:25.223Z,99.99
2022-08-05T06:26:20.794Z,99.99
2022-08-05T06:27:06.271Z,99.99
2022-08-05T06:28:11.203Z,99.99
2022-08-05T06:29:25.481Z,99.99
2022-08-05T06:30:17.742Z,99.99
2022-08-05T06:31:11.293Z,99.99
2022-08-05T06:32:25.465Z,99.99
2022-08-05T06:33:09.876Z,99.99
2022-08-05T06:34:08.913Z,99.99
2022-08-05T06:35:21.699Z,99.99
2022-08-05T06:36:10.088Z,99.99
2022-08-05T06:37:07.043Z,99.99
2022-08-05T06:38:11.119Z,99.99
2022-08-05T06:39:07.449Z,99.99
2022-08-05T06:40:07.486Z,99.99
2022-08-05T06:41:08.448Z,99.99
2022-08-05T06:42:08.415Z,99.99
2022-08-05T06:43:57.604Z,99.99
2022-08-05T06:44:09.184Z,99.99
2022-08-05T06:45:09.194Z,99.99
2022-08-05T06:46:08.627Z,99.99
2022-08-05T06:47:10.208Z,99.99
2022-08-05T06:48:36.531Z,99.99
2022-08-05T06:49:10.121Z,99.99
2022-08-05T06:50:09.431Z,99.99
2022-08-05T06:51:12.093Z,99.99
2022-08-05T06:52:38.192Z,99.99
2022-08-05T06:53:22.744Z,99.99
2022-08-05T06:54:18.055Z,99.99
2022-08-05T06:55:11.289Z,99.99
2022-08-05T06:56:24.920Z,99.99
2022-08-05T06:57:56.845Z,99.99
2022-08-05T06:58:29.238Z,99.99
2022-08-05T06:59:12.133Z,99.99
2022-08-05T07:00:11.278Z,99.99
2022-08-05T07:01:11.471Z,99.99
2022-08-05T07:02:11.595Z,99.99
2022-08-05T07:03:11.723Z,99.99
2022-08-05T07:04:13.886Z,99.99
2022-08-05T07:05:18.558Z,99.99
2022-08-05T07:06:14.266Z,99.99
2022-08-05T07:07:12.416Z,99.99
2022-08-05T07:08:12.559Z,99.99
2022-08-05T07:09:13.905Z,99.96
2022-08-05T07:10:14.909Z,99.16
2022-08-05T07:11:15.115Z,99.76
2022-08-05T07:12:13.228Z,99.99
2022-08-05T07:13:13.924Z,99.99
2022-08-05T07:14:19.967Z,99.99
2022-08-05T07:15:17.330Z,99.99
2022-08-05T07:17:59.467Z,99.99
2022-08-05T07:17:59.794Z,99.99
2022-08-05T07:18:20.276Z,99.99
2022-08-05T07:19:44.312Z,99.99
2022-08-05T07:20:32.883Z,99.99
2022-08-05T07:21:16.983Z,99.99
2022-08-05T07:22:16.179Z,99.99
2022-08-05T07:23:29.180Z,99.99
2022-08-05T07:24:16.439Z,99.99
2022-08-05T07:25:54.165Z,99.99
2022-08-05T07:26:22.531Z,99.99
2022-08-05T07:27:17.881Z,99.99
2022-08-05T07:28:17.364Z,99.99
2022-08-05T07:29:16.349Z,99.99
2022-08-05T07:30:27.725Z,99.99
2022-08-05T07:31:17.685Z,99.99
2022-08-05T07:32:17.436Z,99.99
2022-08-05T07:33:17.930Z,99.99
2022-08-05T07:34:21.572Z,99.99
2022-08-05T07:35:55.614Z,99.99
2022-08-05T07:36:20.165Z,99.99
2022-08-05T07:37:17.652Z,99.99
2022-08-05T07:38:32.780Z,99.99
2022-08-05T07:39:24.848Z,99.99
2022-08-05T07:40:31.948Z,99.99
2022-08-05T07:42:14.288Z,99.99
2022-08-05T07:42:31.491Z,99.99
2022-08-05T07:43:21.267Z,99.99
2022-08-05T07:44:19.672Z,99.99
2022-08-05T07:45:19.124Z,99.99
2022-08-05T07:46:24.791Z,99.99
2022-08-05T07:47:20.704Z,99.99
2022-08-05T07:49:00.576Z,99.99
2022-08-05T07:49:21.047Z,99.99
2022-08-05T07:50:23.671Z,99.99
2022-08-05T07:51:23.288Z,99.99
2022-08-05T07:52:21.623Z,99.99
2022-08-05T07:53:20.814Z,99.99
2022-08-05T07:54:20.969Z,99.99
2022-08-05T07:56:04.846Z,99.99
2022-08-05T07:57:00.032Z,99.99
2022-08-05T07:57:55.263Z,99.99
2022-08-05T07:58:57.214Z,99.99
2022-08-05T07:59:31.069Z,99.99
2022-08-05T08:00:23.063Z,99.99
2022-08-05T08:01:23.299Z,99.99
2022-08-05T08:02:22.415Z,99.99
2022-08-05T08:03:22.576Z,99.99
2022-08-05T08:04:37.444Z,99.99
2022-08-05T08:05:23.910Z,99.99
2022-08-05T08:06:23.084Z,99.99
2022-08-05T08:07:24.717Z,99.99
2022-08-05T08:08:23.560Z,99.99
2022-08-05T08:09:23.715Z,99.99
2022-08-05T08:10:23.855Z,99.99
2022-08-05T08:11:27.691Z,99.99
2022-08-05T08:12:35.287Z,99.99
2022-08-05T08:13:28.986Z,99.99
2022-08-05T08:14:25.545Z,99.99
2022-08-05T08:15:37.381Z,99.99
2022-08-05T08:16:50.232Z,99.99
2022-08-05T08:17:27.938Z,99.99
2022-08-05T08:18:25.220Z,99.99
2022-08-05T08:20:21.495Z,99.99
2022-08-05T08:20:45.381Z,99.99
2022-08-05T08:21:26.824Z,99.99
2022-08-05T08:22:27.035Z,99.99
2022-08-05T08:24:01.279Z,99.99
2022-08-05T08:24:41.497Z,99.99
2022-08-05T08:26:00.698Z,99.99
2022-08-05T08:26:29.754Z,99.99
2022-08-05T08:27:35.696Z,99.99
2022-08-05T08:28:35.737Z,99.99
2022-08-05T08:30:05.425Z,99.99
2022-08-05T08:30:37.671Z,99.99
2022-08-05T08:31:28.723Z,99.99
2022-08-05T08:32:28.488Z,99.99
2022-08-05T08:33:28.096Z,99.99
2022-08-05T08:34:30.637Z,99.99
2022-08-05T08:35:28.391Z,99.99
2022-08-05T08:36:48.785Z,99.99
2022-08-05T08:37:29.704Z,99.99
2022-08-05T08:38:35.395Z,99.99
2022-08-05T08:39:29.998Z,99.99
2022-08-05T08:40:29.958Z,99.99
2022-08-05T08:41:52.579Z,99.99
2022-08-05T08:42:34.113Z,99.99
2022-08-05T08:45:21.057Z,99.99
2022-08-05T08:45:23.973Z,99.99
2022-08-05T08:45:31.185Z,99.99
2022-08-05T08:46:30.480Z,99.99
2022-08-05T08:48:06.205Z,99.99
2022-08-05T08:49:02.916Z,99.99
2022-08-05T08:50:22.915Z,99.99
2022-08-05T08:51:03.389Z,99.99
2022-08-05T08:52:02.981Z,99.99
2022-08-05T08:52:32.457Z,99.99
2022-08-05T08:53:31.585Z,99.99
2022-08-05T08:54:31.704Z,99.99
2022-08-05T08:56:05.252Z,99.99
2022-08-05T08:56:33.190Z,99.99
2022-08-05T08:57:42.259Z,99.99
2022-08-05T08:58:37.458Z,99.99
2022-08-05T08:59:34.463Z,99.99
2022-08-05T09:00:32.850Z,99.99
2022-08-05T09:01:32.976Z,99.99
2022-08-05T09:02:33.473Z,99.99
2022-08-05T09:03:40.729Z,99.99
2022-08-05T09:04:34.584Z,99.99
2022-08-05T09:05:38.642Z,99.99
2022-08-05T09:06:36.372Z,99.99
2022-08-05T09:07:40.102Z,99.99
2022-08-05T09:08:35.181Z,99.99
2022-08-05T09:09:35.593Z,99.99
2022-08-05T09:10:34.590Z,99.99
2022-08-05T09:11:52.748Z,99.99
2022-08-05T09:12:35.943Z,99.99
2022-08-05T09:14:00.700Z,99.99
2022-08-05T09:14:57.272Z,99.99
2022-08-05T09:15:37.356Z,99.99
2022-08-05T09:16:36.483Z,99.99
2022-08-05T09:17:42.810Z,99.99
2022-08-05T09:18:40.098Z,99.99
2022-08-05T09:20:01.810Z,99.99
2022-08-05T09:20:38.285Z,99.99
2022-08-05T09:22:22.077Z,99.99
2022-08-05T09:22:38.217Z,99.99
2022-08-05T09:23:43.852Z,99.99
2022-08-05T09:24:38.104Z,99.99
2022-08-05T09:26:02.570Z,99.99
2022-08-05T09:26:38.334Z,99.99
2022-08-05T09:28:05.174Z,99.99
2022-08-05T09:28:38.777Z,99.99
2022-08-05T09:29:47.556Z,99.99
2022-08-05T09:30:39.171Z,99.99
2022-08-05T09:32:42.124Z,99.99
2022-08-05T09:32:46.198Z,99.99
2022-08-05T09:33:40.473Z,99.99
2022-08-05T09:34:38.836Z,99.99
2022-08-05T09:35:40.009Z,99.99
2022-08-05T09:36:54.323Z,99.99
2022-08-05T09:38:12.237Z,99.99
2022-08-05T09:38:40.513Z,99.99
2022-08-05T09:39:45.613Z,99.99
2022-08-05T09:40:51.803Z,99.99
2022-08-05T09:41:41.093Z,99.99
2022-08-05T09:42:40.283Z,99.99
2022-08-05T09:43:42.212Z,99.99
2022-08-05T09:44:41.473Z,99.99
2022-08-05T09:46:06.524Z,99.99
2022-08-05T09:46:51.689Z,99.99
2022-08-05T09:47:55.350Z,99.99
2022-08-05T09:48:42.372Z,99.99
2022-08-05T09:50:02.109Z,99.99
2022-08-05T09:50:44.168Z,99.99
2022-08-05T09:51:41.765Z,99.99
2022-08-05T09:52:45.148Z,99.99
2022-08-05T09:53:54.744Z,99.99
2022-08-05T09:54:43.218Z,99.99
2022-08-05T09:55:56.125Z,99.99
2022-08-05T09:56:51.644Z,99.99
2022-08-05T09:57:44.480Z,99.99
2022-08-05T09:58:42.777Z,99.99
2022-08-05T09:59:43.005Z,99.99
2022-08-05T10:00:43.985Z,99.99
2022-08-05T10:01:45.733Z,99.99
2022-08-05T10:02:44.033Z,99.99
2022-08-05T10:03:58.750Z,99.99
2022-08-05T10:04:44.819Z,99.99
2022-08-05T10:05:44.081Z,99.99
2022-08-05T10:06:54.815Z,99.99
2022-08-05T10:07:50.525Z,99.99
2022-08-05T10:08:53.892Z,99.99
2022-08-05T10:09:45.752Z,99.99
2022-08-05T10:10:44.864Z,99.99
2022-08-05T10:11:45.061Z,99.99
2022-08-05T10:12:49.182Z,99.99
2022-08-05T10:13:48.202Z,99.99
2022-08-05T10:14:46.484Z,99.99
2022-08-05T10:15:46.488Z,99.99
2022-08-05T10:16:52.778Z,99.99
2022-08-05T10:17:54.602Z,99.99
2022-08-05T10:18:48.405Z,99.99
2022-08-05T10:20:04.338Z,99.99
2022-08-05T10:20:48.412Z,99.99
2022-08-05T10:21:46.857Z,99.99
2022-08-05T10:22:48.743Z,99.99
2022-08-05T10:23:59.725Z,99.99
2022-08-05T10:24:48.290Z,99.99
2022-08-05T10:25:47.463Z,99.99
2022-08-05T10:26:52.072Z,99.99
2022-08-05T10:28:13.147Z,99.99
2022-08-05T10:28:49.069Z,99.99
2022-08-05T10:30:41.046Z,99.99
2022-08-05T10:32:48.135Z,99.99
2022-08-05T10:32:54.348Z,99.99
2022-08-05T10:33:00.630Z,99.99
2022-08-05T10:33:52.409Z,99.99
2022-08-05T10:34:49.140Z,99.99
2022-08-05T10:35:58.942Z,99.99
2022-08-05T10:36:52.496Z,99.99
2022-08-05T10:37:49.732Z,99.99
2022-08-05T10:38:49.946Z,99.99
2022-08-05T10:39:59.236Z,99.99
2022-08-05T10:40:51.548Z,99.99
2022-08-05T10:41:50.449Z,99.99
2022-08-05T10:42:50.655Z,99.99
2022-08-05T10:43:51.501Z,99.99
2022-08-05T10:44:51.007Z,99.99
2022-08-05T10:45:51.170Z,99.99
2022-08-05T10:46:54.301Z,99.99
2022-08-05T10:48:27.565Z,99.99
2022-08-05T10:48:57.892Z,99.99
2022-08-05T10:50:33.061Z,99.99
2022-08-05T10:50:53.032Z,99.99
2022-08-05T10:51:58.290Z,99.99
2022-08-05T10:52:53.412Z,99.99
2022-08-05T10:53:54.461Z,99.99
2022-08-05T10:54:56.067Z,99.99
2022-08-05T10:56:04.894Z,99.99
2022-08-05T10:56:54.213Z,99.99
2022-08-05T10:57:53.380Z,99.99
2022-08-05T10:58:53.565Z,99.99
2022-08-05T11:00:03.372Z,99.99
2022-08-05T11:01:02.823Z,99.99
2022-08-05T11:02:04.639Z,99.99
2022-08-05T11:02:56.061Z,99.99
2022-08-05T11:03:54.370Z,99.99
2022-08-05T11:04:55.011Z,99.99
2022-08-05T11:05:54.729Z,99.99
2022-08-05T11:06:56.505Z,99.99
2022-08-05T11:08:03.181Z,99.99
2022-08-05T11:08:57.002Z,99.99
2022-08-05T11:10:07.723Z,99.99
2022-08-05T11:11:00.853Z,99.99
2022-08-05T11:11:56.749Z,99.99
2022-08-05T11:12:56.402Z,99.99
2022-08-05T11:13:58.390Z,99.99
2022-08-05T11:15:11.586Z,99.99
2022-08-05T11:16:01.217Z,99.99
2022-08-05T11:17:01.152Z,99.99
2022-08-05T11:18:03.753Z,99.99
2022-08-05T11:18:57.999Z,99.99
2022-08-05T11:20:16.575Z,99.99
2022-08-05T11:20:59.227Z,99.99
2022-08-05T11:21:57.911Z,99.99
2022-08-05T11:23:02.002Z,99.99
2022-08-05T11:24:04.360Z,99.99
2022-08-05T11:25:16.596Z,99.99
2022-08-05T11:26:05.453Z,99.99
2022-08-05T11:26:59.592Z,99.99
2022-08-05T11:28:00.546Z,99.99
2022-08-05T11:29:11.817Z,99.99
2022-08-05T11:30:01.218Z,99.99
2022-08-05T11:30:59.438Z,99.99
2022-08-05T11:32:01.174Z,99.99
2022-08-05T11:32:59.805Z,99.99
2022-08-05T11:34:00.019Z,99.99
2022-08-05T11:35:00.115Z,99.99
2022-08-05T11:36:04.448Z,99.99
2022-08-05T11:37:01.542Z,99.99
2022-08-05T11:38:30.350Z,99.99
2022-08-05T11:39:02.049Z,99.99
2022-08-05T11:40:03.463Z,99.99
2022-08-05T11:41:14.181Z,99.99
2022-08-05T11:42:04.839Z,99.99
2022-08-05T11:43:01.710Z,99.99
2022-08-05T11:44:07.146Z,99.99
2022-08-05T11:45:03.173Z,99.99
2022-08-05T11:46:30.631Z,99.99
2022-08-05T11:47:11.098Z,99.99
2022-08-05T11:48:03.865Z,99.99
2022-08-05T11:49:03.073Z,99.99
2022-08-05T11:50:03.538Z,99.99
2022-08-05T11:51:03.372Z,99.99
2022-08-05T11:52:11.421Z,99.99
2022-08-05T11:53:04.801Z,99.99
2022-08-05T11:54:05.102Z,99.99
2022-08-05T11:55:07.740Z,99.99
2022-08-05T11:56:05.530Z,99.99
2022-08-05T11:57:08.077Z,99.99
2022-08-05T11:58:08.038Z,99.99
2022-08-05T11:59:05.982Z,99.99
2022-08-05T12:00:06.230Z,99.99
2022-08-05T12:01:08.441Z,99.99
2022-08-05T12:02:07.527Z,99.99
2022-08-05T12:03:06.769Z,99.99
2022-08-05T12:04:05.917Z,99.99
2022-08-05T12:05:06.762Z,99.99
2022-08-05T12:06:09.832Z,99.99
2022-08-05T12:07:06.543Z,99.99
2022-08-05T12:08:10.045Z,99.99
2022-08-05T12:09:06.946Z,99.99
2022-08-05T12:10:09.170Z,99.99
2022-08-05T12:11:08.030Z,99.99
2022-08-05T12:12:07.519Z,99.99
2022-08-05T12:13:15.633Z,99.99
2022-08-05T12:14:10.261Z,99.99
2022-08-05T12:15:08.090Z,99.69
2022-08-05T12:16:14.542Z,99.08
2022-08-05T12:17:42.229Z,98.54
2022-08-05T12:18:11.958Z,98.94
2022-08-05T12:19:08.949Z,98.94
2022-08-05T12:20:16.634Z,98.19
2022-08-05T12:21:10.269Z,96.78
2022-08-05T12:22:10.055Z,96.48
2022-08-05T12:23:10.528Z,98.19
2022-08-05T12:24:09.875Z,97.28
2022-08-05T12:25:09.887Z,96.58
2022-08-05T12:26:11.123Z,95.77
2022-08-05T12:27:21.539Z,96.43
2022-08-05T12:28:12.029Z,97.19
2022-08-05T12:29:15.890Z,96.19
2022-08-05T12:30:15.354Z,95.59
2022-08-05T12:31:12.036Z,94.08
2022-08-05T12:32:12.244Z,93.12
2022-08-05T12:33:27.195Z,91.91
2022-08-05T12:34:20.614Z,90.61
2022-08-05T12:35:13.528Z,91.31
2022-08-05T12:36:12.136Z,91.96
2022-08-05T12:37:16.241Z,92.06
2022-08-05T12:38:13.466Z,91.75
2022-08-05T12:39:12.700Z,91.82
2022-08-05T12:40:26.606Z,91.25
2022-08-05T12:41:14.159Z,88.90
2022-08-05T12:42:14.712Z,90.86
2022-08-05T12:43:20.985Z,92.13
2022-08-05T12:44:33.021Z,89.72
2022-08-05T12:45:14.672Z,86.60
2022-08-05T12:46:14.542Z,85.56
2022-08-05T12:47:25.562Z,87.16
2022-08-05T12:48:26.828Z,86.92
2022-08-05T12:49:16.033Z,88.63
2022-08-05T12:50:14.579Z,85.75
2022-08-05T12:51:21.809Z,84.09
2022-08-05T12:52:23.848Z,85.75
2022-08-05T12:53:16.204Z,86.96
2022-08-05T12:54:23.504Z,84.61
2022-08-05T12:55:17.048Z,83.91